00:00
Airports
History
Links
Donate
Help keep this website running!
PayPal
Bitcoin
This page is community maintained. The information is intended for PC simulator navigation or reference.
Always use approved charts for navigation.
BIMM
Melgerdismelar
Melgerdismelar (BIMM)
Northeast, Iceland
4
Lat/Lng:65° 29' 1.28" N / 18° 9' 52.28" W
65.483688 / -18.164522
Elevation:36'ft / 11mMSL
ID / ICAO:BIMM
Runways:1
Longest:04-22
Gravel 612m / 2,006ft
Nearby Weather23:00 GMT 2018-01-23
Nearby weather at BIAR, AKUREYRI located 12.4 nautical miles from BIMM
Altimeter: 29.29
Visibility: 4.3 statute miles
Wind: 17 knots (from 020°)
Temp: 1°c / 34°f
Humidity: 86.5%

METAR: BIAR 232300Z 02017KT 7000 -SN OVC029 01/M01 Q0992

(Powered by phpweather)
Nearby VORs <50NM
Nearby NDBs
Runway 04 / 22
Dimensions:611.5 x 22.9m 2006' x 75'ft
Surface:Gravel
Runway 04 [A]Runway 22 [B]
Heading:018°TH 198°TH
Lat:
Lng:
65° 28' 51.95"N
18° 10' 0.02"W
65° 29' 10.61"N
18° 9' 44.54"W
User Notes and Comments
65° 29' 1.28" N / 18° 9' 52.28" W
Distance To
Airport ID:
Nearby Airports
(C) AKUREYRI 12.4 NM
BIAR ( WX ) NNE 12°
4 Hrisey 36.3 NM
BIHY N 349°
4 Reykjahlid 37.5 NM
BIRL ENE 71°
(C) HUSAVIK 38.6 NM
BIHU NNE 32°
(C) Saudarkrokur 43.7 NM
BIKR WNW 293°
4 Olafsfjordur 43.8 NM
BIOF NNW 341°
(U) SIGLUFJORDUR 49.7 NM
BISI NNW 334°
VFR Chart
Flight Planning at SkyVector.com